createdAt,value
2019-03-25T00:01:24.569Z,76.48
2019-03-25T00:03:54.255Z,76.47
2019-03-25T00:06:23.880Z,76.19
2019-03-25T00:09:04.863Z,76.22
2019-03-25T00:11:24.934Z,76.10
2019-03-25T00:13:54.550Z,76.28
2019-03-25T00:16:24.242Z,76.25
2019-03-25T00:18:53.947Z,76.41
2019-03-25T00:21:25.437Z,76.46
2019-03-25T00:23:55.093Z,76.42
2019-03-25T00:26:24.713Z,76.55
2019-03-25T00:28:54.332Z,76.62
2019-03-25T00:31:24.018Z,76.62
2019-03-25T00:33:53.744Z,76.84
2019-03-25T00:36:23.365Z,76.99
2019-03-25T00:38:53.147Z,77.26
2019-03-25T00:41:23.233Z,77.36
2019-03-25T00:43:52.850Z,77.74
2019-03-25T00:46:22.520Z,77.72
2019-03-25T00:48:53.810Z,77.75
2019-03-25T00:51:25.105Z,77.81
2019-03-25T00:53:57.031Z,77.62
2019-03-25T00:56:27.090Z,77.87
2019-03-25T00:58:56.718Z,77.72
2019-03-25T01:01:27.287Z,77.72
2019-03-25T01:03:56.905Z,77.86
2019-03-25T01:06:26.375Z,77.87
2019-03-25T01:08:57.836Z,78.09
2019-03-25T01:11:27.634Z,77.91
2019-03-25T01:13:58.672Z,77.89
2019-03-25T01:16:28.335Z,78.04
2019-03-25T01:18:57.952Z,78.01
2019-03-25T01:21:27.575Z,78.11
2019-03-25T01:23:58.125Z,78.09
2019-03-25T01:26:27.749Z,78.11
2019-03-25T01:28:57.367Z,77.93
2019-03-25T01:31:27.020Z,77.94
2019-03-25T01:33:56.748Z,77.90
2019-03-25T01:36:26.943Z,77.99
2019-03-25T01:38:56.598Z,77.83
2019-03-25T01:41:26.214Z,77.87
2019-03-25T01:43:55.836Z,77.84
2019-03-25T01:46:25.520Z,77.82
2019-03-25T01:48:55.254Z,77.61
2019-03-25T01:51:26.512Z,77.58
2019-03-25T01:53:56.298Z,77.75
2019-03-25T01:56:26.202Z,77.61
2019-03-25T01:58:56.591Z,77.86
2019-03-25T02:01:26.287Z,77.71
2019-03-25T02:03:55.896Z,77.92
2019-03-25T02:06:25.525Z,77.92
2019-03-25T02:08:56.056Z,77.87
2019-03-25T02:11:26.437Z,77.81
2019-03-25T02:13:57.137Z,77.95
2019-03-25T02:16:26.829Z,77.81
2019-03-25T02:18:56.557Z,77.91
2019-03-25T02:21:26.177Z,77.68
2019-03-25T02:23:55.844Z,77.71
2019-03-25T02:26:25.487Z,77.60
2019-03-25T02:28:55.494Z,77.71
2019-03-25T02:31:25.152Z,77.61
2019-03-25T02:33:54.794Z,77.53
2019-03-25T02:36:24.734Z,77.49
2019-03-25T02:38:54.751Z,77.41
2019-03-25T02:41:26.142Z,77.30
2019-03-25T02:43:55.755Z,77.22
2019-03-25T02:46:25.558Z,77.22
2019-03-25T02:48:56.860Z,77.29
2019-03-25T02:51:26.489Z,77.34
2019-03-25T02:53:56.194Z,77.36
2019-03-25T02:56:25.824Z,77.38
2019-03-25T02:58:55.492Z,77.42
2019-03-25T03:01:26.415Z,77.45
2019-03-25T03:03:56.041Z,77.63
2019-03-25T03:06:26.571Z,77.54
2019-03-25T03:08:56.626Z,77.64
2019-03-25T03:11:26.242Z,77.60
2019-03-25T03:13:56.933Z,77.57
2019-03-25T03:16:27.236Z,77.65
2019-03-25T03:18:56.963Z,77.73
2019-03-25T03:21:26.586Z,77.59
2019-03-25T03:23:57.147Z,77.61
2019-03-25T03:26:27.037Z,77.58
2019-03-25T03:28:56.655Z,77.60
2019-03-25T03:31:26.487Z,77.67
2019-03-25T03:33:56.112Z,77.69
2019-03-25T03:36:25.895Z,77.70
2019-03-25T03:38:55.553Z,77.70
2019-03-25T03:41:25.443Z,77.67
2019-03-25T03:43:55.228Z,77.56
2019-03-25T03:46:24.905Z,77.56
2019-03-25T03:48:54.640Z,77.63
2019-03-25T03:51:24.318Z,77.51
2019-03-25T03:53:54.957Z,77.45
2019-03-25T03:56:25.422Z,77.34
2019-03-25T03:58:56.324Z,77.20
2019-03-25T04:01:27.029Z,77.20
2019-03-25T04:03:56.647Z,77.21
2019-03-25T04:06:26.384Z,77.04
2019-03-25T04:08:56.042Z,76.98
2019-03-25T04:11:26.034Z,77.02
2019-03-25T04:13:56.883Z,77.03
2019-03-25T04:16:26.631Z,77.05
2019-03-25T04:18:56.366Z,77.12
2019-03-25T04:21:27.069Z,77.13
2019-03-25T04:23:56.839Z,77.16
2019-03-25T04:26:28.909Z,77.09
2019-03-25T04:29:00.116Z,77.01
2019-03-25T04:31:29.807Z,77.05
2019-03-25T04:33:59.424Z,77.08
2019-03-25T04:36:29.051Z,77.12
2019-03-25T04:38:58.749Z,77.15
2019-03-25T04:41:28.414Z,77.06
2019-03-25T04:43:58.618Z,76.94
2019-03-25T04:46:28.454Z,76.95
2019-03-25T04:48:58.146Z,77.07
2019-03-25T04:51:28.631Z,77.11
2019-03-25T04:53:58.804Z,76.88
2019-03-25T04:56:39.098Z,76.71
2019-03-25T04:58:59.814Z,76.72
2019-03-25T05:01:29.729Z,76.80
2019-03-25T05:03:59.353Z,76.58
2019-03-25T05:06:28.986Z,76.27
2019-03-25T05:08:59.006Z,76.58
2019-03-25T05:11:30.914Z,76.32
2019-03-25T05:14:00.082Z,75.79
2019-03-25T05:16:29.882Z,75.69
2019-03-25T05:18:59.677Z,75.49
2019-03-25T05:21:29.366Z,75.29
2019-03-25T05:24:00.337Z,75.32
2019-03-25T05:26:30.083Z,75.28
2019-03-25T05:28:59.658Z,75.10
2019-03-25T05:31:29.339Z,75.00
2019-03-25T05:33:58.969Z,75.30
2019-03-25T05:36:28.698Z,74.93
2019-03-25T05:38:58.632Z,74.17
2019-03-25T05:41:28.423Z,74.05
2019-03-25T05:43:58.043Z,74.04
2019-03-25T05:46:27.894Z,73.83
2019-03-25T05:48:57.577Z,73.74
2019-03-25T05:51:27.188Z,73.60
2019-03-25T05:53:56.889Z,73.65
2019-03-25T05:56:26.889Z,73.60
2019-03-25T05:58:56.506Z,73.49
2019-03-25T06:01:26.833Z,73.11
2019-03-25T06:03:56.460Z,72.61
2019-03-25T06:06:26.259Z,72.17
2019-03-25T06:08:56.076Z,71.75
2019-03-25T06:11:26.263Z,71.17
2019-03-25T06:13:56.007Z,70.89
2019-03-25T06:16:25.706Z,71.04
2019-03-25T06:18:55.183Z,70.60
2019-03-25T06:21:25.347Z,70.61
2019-03-25T06:23:55.142Z,70.70
2019-03-25T06:26:25.618Z,69.95
2019-03-25T06:28:55.234Z,69.87
2019-03-25T06:31:24.934Z,69.78
2019-03-25T06:33:54.657Z,69.65
2019-03-25T06:36:24.393Z,69.64
2019-03-25T06:38:54.393Z,69.88
2019-03-25T06:41:24.134Z,70.71
2019-03-25T06:43:53.831Z,70.71
2019-03-25T06:46:23.813Z,70.25
2019-03-25T06:48:53.701Z,70.65
2019-03-25T06:51:23.386Z,70.81
2019-03-25T06:53:54.900Z,70.96
2019-03-25T06:56:25.386Z,71.05
2019-03-25T06:58:55.204Z,71.34
2019-03-25T07:01:24.867Z,71.44
2019-03-25T07:03:55.276Z,71.90
2019-03-25T07:06:25.074Z,72.20
2019-03-25T07:08:55.583Z,72.57
2019-03-25T07:11:26.244Z,72.54
2019-03-25T07:13:56.397Z,72.69
2019-03-25T07:16:26.166Z,72.37
2019-03-25T07:18:55.787Z,72.37
2019-03-25T07:21:25.410Z,72.30
2019-03-25T07:23:55.184Z,72.62
2019-03-25T07:26:24.835Z,73.02
2019-03-25T07:28:55.285Z,73.37
2019-03-25T07:31:25.622Z,73.25
2019-03-25T07:33:55.230Z,73.08
2019-03-25T07:36:24.950Z,72.90
2019-03-25T07:38:55.506Z,72.59
2019-03-25T07:41:25.872Z,72.65
2019-03-25T07:43:55.490Z,72.60
2019-03-25T07:46:25.230Z,72.20
2019-03-25T07:48:55.074Z,71.89
2019-03-25T07:51:25.605Z,71.62
2019-03-25T07:53:55.300Z,71.50
2019-03-25T07:56:24.925Z,71.66
2019-03-25T07:58:54.545Z,71.57
2019-03-25T08:01:24.336Z,71.57
2019-03-25T08:03:54.307Z,71.23
2019-03-25T08:06:23.905Z,71.22
2019-03-25T08:09:03.303Z,71.20
2019-03-25T08:11:24.921Z,71.15
2019-03-25T08:13:56.080Z,70.60
2019-03-25T08:16:26.614Z,70.40
2019-03-25T08:18:56.909Z,69.50
2019-03-25T08:21:26.754Z,69.29
2019-03-25T08:23:57.169Z,68.80
2019-03-25T08:26:26.793Z,68.51
2019-03-25T08:28:56.590Z,68.04
2019-03-25T08:31:26.290Z,67.73
2019-03-25T08:33:56.687Z,67.15
2019-03-25T08:36:26.308Z,66.53
2019-03-25T08:38:56.309Z,65.98
2019-03-25T08:41:26.076Z,65.81
2019-03-25T08:43:56.249Z,65.36
2019-03-25T08:46:25.967Z,64.81
2019-03-25T08:48:55.383Z,64.57
2019-03-25T08:51:25.080Z,63.98
2019-03-25T08:53:55.379Z,62.87
2019-03-25T08:56:26.573Z,62.44
2019-03-25T08:58:56.561Z,62.12
2019-03-25T09:01:26.243Z,62.15
2019-03-25T09:03:56.096Z,61.83
2019-03-25T09:06:26.582Z,61.33
2019-03-25T09:08:56.245Z,61.05
2019-03-25T09:11:25.874Z,60.95
2019-03-25T09:13:55.487Z,60.83
2019-03-25T09:16:26.648Z,60.22
2019-03-25T09:18:56.630Z,59.09
2019-03-25T09:21:27.124Z,59.62
2019-03-25T09:23:57.645Z,59.12
2019-03-25T09:26:28.256Z,58.94
2019-03-25T09:28:58.329Z,58.59
2019-03-25T09:31:36.744Z,58.22
2019-03-25T09:34:00.516Z,57.85
2019-03-25T09:36:30.196Z,57.49
2019-03-25T09:39:01.394Z,57.15
2019-03-25T09:41:31.024Z,56.07
2019-03-25T09:44:00.996Z,55.81
2019-03-25T09:46:30.729Z,55.49
2019-03-25T09:49:00.360Z,55.59
2019-03-25T09:51:30.089Z,55.57
2019-03-25T09:53:59.527Z,55.07
2019-03-25T09:56:29.316Z,54.11
2019-03-25T09:58:59.006Z,53.58
2019-03-25T10:01:28.610Z,53.32
2019-03-25T10:03:58.733Z,52.13
2019-03-25T10:06:28.403Z,51.61
2019-03-25T10:08:58.031Z,52.05
2019-03-25T10:11:28.228Z,52.06
2019-03-25T10:13:58.241Z,51.31
2019-03-25T10:16:28.244Z,51.00
2019-03-25T10:18:57.904Z,51.13
2019-03-25T10:21:27.555Z,50.78
2019-03-25T10:24:00.776Z,50.82
2019-03-25T10:26:30.381Z,50.53
2019-03-25T10:29:00.459Z,50.25
2019-03-25T10:31:30.197Z,49.94
2019-03-25T10:34:02.782Z,49.29
2019-03-25T10:36:32.592Z,48.65
2019-03-25T10:39:02.350Z,48.49
2019-03-25T10:41:32.551Z,48.61
2019-03-25T10:44:02.822Z,48.14
2019-03-25T10:46:32.441Z,48.35
2019-03-25T10:49:03.909Z,48.19
2019-03-25T10:51:33.943Z,48.51
2019-03-25T10:54:04.000Z,47.02
2019-03-25T10:56:33.831Z,46.47
2019-03-25T10:59:03.513Z,46.89
2019-03-25T11:01:33.284Z,47.19
2019-03-25T11:04:02.884Z,47.54
2019-03-25T11:06:32.717Z,47.39
2019-03-25T11:09:02.355Z,47.51
2019-03-25T11:11:31.978Z,47.45
2019-03-25T11:14:01.679Z,47.11
2019-03-25T11:16:31.492Z,47.27
2019-03-25T11:19:01.120Z,47.77
2019-03-25T11:21:30.804Z,48.13
2019-03-25T11:24:00.423Z,48.25
2019-03-25T11:26:30.219Z,48.39
2019-03-25T11:29:04.590Z,48.09
2019-03-25T11:31:31.509Z,48.38
2019-03-25T11:34:01.238Z,48.77
2019-03-25T11:36:31.600Z,50.39
2019-03-25T11:39:02.087Z,53.33
2019-03-25T11:41:32.045Z,55.01
2019-03-25T11:44:01.653Z,55.83
2019-03-25T11:46:31.277Z,56.43
2019-03-25T11:49:01.212Z,57.02
2019-03-25T11:51:31.718Z,57.45
2019-03-25T11:54:01.839Z,58.30
2019-03-25T11:56:31.464Z,59.26
2019-03-25T11:59:03.233Z,59.69
2019-03-25T12:01:33.291Z,60.31
2019-03-25T12:04:05.241Z,60.25
2019-03-25T12:06:35.201Z,60.35
2019-03-25T12:09:08.806Z,60.24
2019-03-25T12:11:40.362Z,59.71
2019-03-25T12:14:10.922Z,57.80
2019-03-25T12:16:40.559Z,56.98
2019-03-25T12:19:10.556Z,56.88
2019-03-25T12:21:40.250Z,56.70
2019-03-25T12:24:09.883Z,57.01
2019-03-25T12:26:39.657Z,57.32
2019-03-25T12:29:09.365Z,57.34
2019-03-25T12:31:39.832Z,57.41
2019-03-25T12:34:09.503Z,58.00
2019-03-25T12:36:40.019Z,58.86
2019-03-25T12:39:11.644Z,59.70
2019-03-25T12:41:41.500Z,59.83
2019-03-25T12:44:11.538Z,60.03
2019-03-25T12:46:41.158Z,60.23
2019-03-25T12:49:11.555Z,60.13
2019-03-25T12:51:41.231Z,60.29
2019-03-25T12:54:11.737Z,60.72
2019-03-25T12:56:41.374Z,60.18
2019-03-25T12:59:11.028Z,59.16
2019-03-25T13:01:52.113Z,58.22
2019-03-25T13:04:12.451Z,57.22
2019-03-25T13:06:42.143Z,57.26
2019-03-25T13:09:12.535Z,57.61
2019-03-25T13:11:43.043Z,58.17
2019-03-25T13:14:12.946Z,58.47
2019-03-25T13:16:42.644Z,58.62
2019-03-25T13:19:13.151Z,58.82
2019-03-25T13:21:42.865Z,59.35
2019-03-25T13:24:12.809Z,59.58
2019-03-25T13:26:42.564Z,59.88
2019-03-25T13:29:12.307Z,59.83
2019-03-25T13:31:42.405Z,59.51
2019-03-25T13:34:12.304Z,59.80
2019-03-25T13:36:42.893Z,59.64
2019-03-25T13:39:12.804Z,59.22
2019-03-25T13:41:42.444Z,58.64
2019-03-25T13:44:12.146Z,57.81
2019-03-25T13:46:41.802Z,57.94
2019-03-25T13:49:12.377Z,57.47
2019-03-25T13:51:42.040Z,58.05
2019-03-25T13:54:11.842Z,58.28
2019-03-25T13:56:41.470Z,57.76
2019-03-25T13:59:11.167Z,57.10
2019-03-25T14:01:43.162Z,56.63
2019-03-25T14:04:12.901Z,55.98
2019-03-25T14:06:42.633Z,55.41
2019-03-25T14:09:12.269Z,55.18
2019-03-25T14:11:42.060Z,54.53
2019-03-25T14:14:11.719Z,54.18
2019-03-25T14:16:41.364Z,53.35
2019-03-25T14:19:11.316Z,50.80
2019-03-25T14:21:41.279Z,45.51
2019-03-25T14:24:12.475Z,41.01
2019-03-25T14:26:42.776Z,36.61
2019-03-25T14:29:12.657Z,32.68
2019-03-25T14:31:42.286Z,30.88
2019-03-25T14:34:14.417Z,29.77
2019-03-25T14:36:43.606Z,29.94
2019-03-25T14:39:13.407Z,28.50
2019-03-25T14:41:43.138Z,25.64
2019-03-25T14:44:12.907Z,23.13
2019-03-25T14:46:42.752Z,22.11
2019-03-25T14:49:12.380Z,21.03
2019-03-25T14:51:42.171Z,19.61
2019-03-25T14:54:12.268Z,20.02
2019-03-25T14:56:42.578Z,21.64
2019-03-25T14:59:12.357Z,23.40
2019-03-25T15:01:42.756Z,24.07
2019-03-25T15:04:13.747Z,21.96
2019-03-25T15:06:43.573Z,19.80
2019-03-25T15:09:13.493Z,18.97
2019-03-25T15:11:44.273Z,20.51
2019-03-25T15:14:14.854Z,20.08
2019-03-25T15:16:44.488Z,19.39
2019-03-25T15:19:14.193Z,20.58
2019-03-25T15:21:43.900Z,20.38
2019-03-25T15:24:14.623Z,19.53
2019-03-25T15:26:44.249Z,20.93
2019-03-25T15:29:13.912Z,22.15
2019-03-25T15:31:43.867Z,22.15
2019-03-25T15:34:13.854Z,19.94
2019-03-25T15:36:43.529Z,19.94
2019-03-25T15:39:13.161Z,20.75
2019-03-25T15:41:42.942Z,22.66
2019-03-25T15:44:12.648Z,25.18
2019-03-25T15:46:42.638Z,27.49
2019-03-25T15:49:12.358Z,29.46
2019-03-25T15:51:43.955Z,31.62
2019-03-25T15:54:13.771Z,33.75
2019-03-25T15:56:43.403Z,35.37
2019-03-25T15:59:13.106Z,36.86
2019-03-25T16:01:43.131Z,37.89
2019-03-25T16:04:13.348Z,38.87
2019-03-25T16:06:43.032Z,39.73
2019-03-25T16:09:12.737Z,40.76
2019-03-25T16:11:42.478Z,41.75
2019-03-25T16:14:12.261Z,42.64
2019-03-25T16:16:42.078Z,43.56
2019-03-25T16:19:11.535Z,44.59
2019-03-25T16:21:41.245Z,45.37
2019-03-25T16:24:10.885Z,46.25
2019-03-25T16:26:41.209Z,47.07
2019-03-25T16:29:10.870Z,47.62
2019-03-25T16:31:40.665Z,48.35
2019-03-25T16:34:10.409Z,49.02
2019-03-25T16:36:40.082Z,49.53
2019-03-25T16:39:10.015Z,50.03
2019-03-25T16:41:39.942Z,50.70
2019-03-25T16:44:09.726Z,51.12
2019-03-25T16:46:39.344Z,51.40
2019-03-25T16:49:08.967Z,51.91
2019-03-25T16:51:38.822Z,52.34
2019-03-25T16:54:08.777Z,52.98
2019-03-25T16:56:38.437Z,53.58
2019-03-25T16:59:08.201Z,54.13
2019-03-25T17:01:39.489Z,54.70
2019-03-25T17:04:09.262Z,55.31
2019-03-25T17:06:39.040Z,56.15
2019-03-25T17:09:08.881Z,56.91
2019-03-25T17:11:38.487Z,57.63
2019-03-25T17:14:08.270Z,58.13
2019-03-25T17:16:37.939Z,58.64
2019-03-25T17:19:07.678Z,58.89
2019-03-25T17:21:37.567Z,59.14
2019-03-25T17:24:07.188Z,59.49
2019-03-25T17:26:42.350Z,59.84
2019-03-25T17:29:08.302Z,60.02
2019-03-25T17:31:37.913Z,60.20
2019-03-25T17:34:07.661Z,60.55
2019-03-25T17:36:37.584Z,60.77
2019-03-25T17:39:09.466Z,61.05
2019-03-25T17:41:39.186Z,61.32
2019-03-25T17:44:08.979Z,61.40
2019-03-25T17:46:38.669Z,61.94
2019-03-25T17:49:09.311Z,62.07
2019-03-25T17:51:39.925Z,62.09
2019-03-25T17:54:09.656Z,62.26
2019-03-25T17:56:39.274Z,62.33
2019-03-25T17:59:08.978Z,62.81
2019-03-25T18:01:40.117Z,63.22
2019-03-25T18:04:10.137Z,63.50
2019-03-25T18:06:39.819Z,63.85
2019-03-25T18:09:11.045Z,63.75
2019-03-25T18:11:40.675Z,64.24
2019-03-25T18:14:10.494Z,64.43
2019-03-25T18:16:40.041Z,64.40
2019-03-25T18:19:09.799Z,64.76
2019-03-25T18:21:39.862Z,65.08
2019-03-25T18:24:09.459Z,65.33
2019-03-25T18:26:39.266Z,65.61
2019-03-25T18:29:08.935Z,65.73
2019-03-25T18:31:43.231Z,65.94
2019-03-25T18:34:09.861Z,66.27
2019-03-25T18:36:39.635Z,66.61
2019-03-25T18:39:11.506Z,67.02
2019-03-25T18:41:41.831Z,67.31
2019-03-25T18:44:11.503Z,67.74
2019-03-25T18:46:41.155Z,68.11
2019-03-25T18:49:10.949Z,68.61
2019-03-25T18:51:40.642Z,68.71
2019-03-25T18:54:11.369Z,69.29
2019-03-25T18:56:41.036Z,69.66
2019-03-25T18:59:10.707Z,69.97
2019-03-25T19:01:40.737Z,69.94
2019-03-25T19:04:10.370Z,70.49
2019-03-25T19:06:41.133Z,70.93
2019-03-25T19:09:10.898Z,70.65
2019-03-25T19:11:40.510Z,70.60
2019-03-25T19:14:10.282Z,70.97
2019-03-25T19:16:39.878Z,71.25
2019-03-25T19:19:09.824Z,71.49
2019-03-25T19:21:39.476Z,71.74
2019-03-25T19:24:09.153Z,71.70
2019-03-25T19:26:38.772Z,71.63
2019-03-25T19:29:08.531Z,71.93
2019-03-25T19:31:38.170Z,71.96
2019-03-25T19:34:07.782Z,71.95
2019-03-25T19:36:37.517Z,71.87
2019-03-25T19:39:07.582Z,71.91
2019-03-25T19:41:37.319Z,71.80
2019-03-25T19:44:07.869Z,71.58
2019-03-25T19:46:37.515Z,71.69
2019-03-25T19:49:07.242Z,71.62
2019-03-25T19:51:37.079Z,71.56
2019-03-25T19:54:06.831Z,71.48
2019-03-25T19:56:36.447Z,71.50
2019-03-25T19:59:06.124Z,71.57
2019-03-25T20:01:35.744Z,71.43
2019-03-25T20:04:05.421Z,71.09
2019-03-25T20:06:35.151Z,70.93
2019-03-25T20:09:06.846Z,70.71
2019-03-25T20:11:36.492Z,70.22
2019-03-25T20:14:06.416Z,69.89
2019-03-25T20:16:36.462Z,69.69
2019-03-25T20:19:06.069Z,69.79
2019-03-25T20:21:35.762Z,69.69
2019-03-25T20:24:05.417Z,69.58
2019-03-25T20:26:35.407Z,69.59
2019-03-25T20:29:06.487Z,69.44
2019-03-25T20:31:36.460Z,69.34
2019-03-25T20:34:11.331Z,69.41
2019-03-25T20:36:37.591Z,69.72
2019-03-25T20:39:09.645Z,69.86
2019-03-25T20:41:39.286Z,69.98
2019-03-25T20:44:09.761Z,69.93
2019-03-25T20:46:39.377Z,69.60
2019-03-25T20:49:08.967Z,69.60
2019-03-25T20:51:38.863Z,69.52
2019-03-25T20:54:08.501Z,69.38
2019-03-25T20:56:38.100Z,69.49
2019-03-25T20:59:07.836Z,69.47
2019-03-25T21:01:37.747Z,69.61
2019-03-25T21:04:07.365Z,69.54
2019-03-25T21:06:37.171Z,69.66
2019-03-25T21:09:07.890Z,69.66
2019-03-25T21:11:37.583Z,69.71
2019-03-25T21:14:07.286Z,69.70
2019-03-25T21:16:36.899Z,69.76
2019-03-25T21:19:06.607Z,69.90
2019-03-25T21:21:36.391Z,69.91
2019-03-25T21:24:06.050Z,69.92
2019-03-25T21:26:37.744Z,69.92
2019-03-25T21:29:07.554Z,69.91
2019-03-25T21:31:39.093Z,70.00
2019-03-25T21:34:08.910Z,70.05
2019-03-25T21:36:38.660Z,70.02
2019-03-25T21:39:08.813Z,69.87
2019-03-25T21:41:38.448Z,69.78
2019-03-25T21:44:08.656Z,69.62
2019-03-25T21:46:38.470Z,69.13
2019-03-25T21:49:08.215Z,69.05
2019-03-25T21:51:38.157Z,69.00
2019-03-25T21:54:07.859Z,68.64
2019-03-25T21:56:38.841Z,68.17
2019-03-25T21:59:10.363Z,67.63
2019-03-25T22:01:40.009Z,67.41
2019-03-25T22:04:09.989Z,67.24
2019-03-25T22:06:39.676Z,67.26
2019-03-25T22:09:10.159Z,67.42
2019-03-25T22:11:39.862Z,67.80
2019-03-25T22:14:09.555Z,68.33
2019-03-25T22:16:39.403Z,68.78
2019-03-25T22:19:09.020Z,69.26
2019-03-25T22:21:38.818Z,69.72
2019-03-25T22:24:08.438Z,70.05
2019-03-25T22:26:38.309Z,70.34
2019-03-25T22:29:08.094Z,70.60
2019-03-25T22:31:37.727Z,70.73
2019-03-25T22:34:08.175Z,71.04
2019-03-25T22:36:37.857Z,71.18
2019-03-25T22:39:08.677Z,71.36
2019-03-25T22:41:38.306Z,71.52
2019-03-25T22:44:08.556Z,71.65
2019-03-25T22:46:38.176Z,71.90
2019-03-25T22:49:08.122Z,72.26
2019-03-25T22:51:38.188Z,73.19
2019-03-25T22:54:07.818Z,72.72
2019-03-25T22:56:37.604Z,71.78
2019-03-25T22:59:07.252Z,71.85
2019-03-25T23:01:37.791Z,72.32
2019-03-25T23:04:09.503Z,72.73
2019-03-25T23:06:39.188Z,73.22
2019-03-25T23:09:10.940Z,73.71
2019-03-25T23:11:42.197Z,73.98
2019-03-25T23:14:12.834Z,74.40
2019-03-25T23:16:42.646Z,74.66
2019-03-25T23:19:12.653Z,75.04
2019-03-25T23:21:42.378Z,75.01
2019-03-25T23:24:11.995Z,75.66
2019-03-25T23:26:42.190Z,75.90
2019-03-25T23:29:11.850Z,75.85
2019-03-25T23:31:41.477Z,75.95
2019-03-25T23:34:11.964Z,76.13
2019-03-25T23:36:41.624Z,76.48
2019-03-25T23:39:11.248Z,76.52
2019-03-25T23:41:40.863Z,76.76
2019-03-25T23:44:10.655Z,76.89
2019-03-25T23:46:40.381Z,77.07
2019-03-25T23:49:09.991Z,77.24
2019-03-25T23:51:41.285Z,77.42
2019-03-25T23:54:11.876Z,77.57
2019-03-25T23:56:42.246Z,77.77
2019-03-25T23:59:11.930Z,77.83
